Hovedside
METAR-TAF:

METAR-TAF

Lufthavner :

Roseau, Dominica

breddegrad: 15-32N, lengdegrad: 061-24W, høyde over havet: 5 m

Gjeldene værobservasjon

Denne rapporten ble laget for 37 minutter siden, klokken 13:00 UTC
Vind 1 kt fra Vest
Temperatur 31°C
Luftfuktighet 63%
Trykk 1015 hPa
Sikt 10 km eller mer
Spredte skyer i en høyde av 2200 ft

METAR: TDCF 191300Z 28001KT 9999 SCT022 31/23 Q1015

Tid: 09:37 (13:37 UTC)


TAF: fraværende

Værobservasjoner og værvarsel for over 4000 flyplasser (METAR- og TAF-rapporter).

Tilgjengelige stasjoner er representert av de røde og gule prikkene på kartet.

Hold musepekeren over prikken for å se navnet på stasjonen.

Klikk så for å se værobservasjoner og -varsler.

For å forandre kartet kan du klikke på den grønne knappen med svart kryss for å zoome inn, på den grønne knappen med strek for å zoome ut, eller på de grønne pilene for å se tilstøtende kart.


METAR-TAF: